Latest Weather Observations for Woomera

IDS60801

Issued at 8:05 pm CDT Monday 24 November 2014 (issued every 30 minutes, with the page automatically refreshed every 10 minutes)

About weather observations | Map of weather stations | Latest weather observations for SA | Other Formats
Station Details ID: 016001 Name: WOOMERA AERODROME Lat: -31.16 Lon: 136.81 Height: 166.6 m
Data from the previous 72 hours. | See also: Recent months at Woomera
Date/Time
CDT
Temp
°C
App
Temp
°C
Dew
Point
Rel
Hum
%
Delta-T
°C
Wind Press
QNH
hPa
Press
MSL
hPa
Rain
since 9 am
mm
Dir
 
Spd
km/h
Gust
km/h
Spd
kts
Gust
kts
24/08:00pm 25.3 17.0 -0.2 18 11.8 SSW 33 46 18 25 1015.0 - 0.0
24/07:30pm 26.6 18.5 -0.5 17 12.6 SSW 32 43 17 23 1014.5 - 0.0
24/07:00pm 27.4 18.6 -1.1 15 13.2 SSW 35 48 19 26 1014.0 - 0.0
24/06:30pm 28.0 18.4 -1.4 14 13.6 SSW 39 44 21 24 1013.7 - 0.0
24/06:00pm 28.4 20.1 -1.7 14 13.9 SSW 32 39 17 21 1013.5 1012.9 0.0
24/05:45pm 28.7 19.6 -0.5 15 13.8 SW 37 48 20 26 1013.5 - 0.0
24/05:30pm 29.0 21.0 0.3 15 13.8 S 32 44 17 24 1013.5 - 0.0
24/05:10pm 28.7 20.8 1.2 17 13.4 SSW 32 50 17 27 1013.4 - 0.0
24/05:00pm 29.1 20.6 0.9 16 13.7 SSW 35 48 19 26 1013.4 - 0.0
24/04:50pm 28.9 20.6 2.4 18 13.2 SW 35 54 19 29 1013.4 - 0.0
24/04:40pm 29.3 20.2 1.8 17 13.6 S 39 52 21 28 1013.2 - 0.0
24/04:30pm 28.4 19.0 2.4 18 12.9 SW 41 54 22 29 1013.2 - 0.0
24/04:00pm 28.1 19.8 5.9 24 11.7 SSW 39 59 21 32 1013.1 - 0.0
24/03:53pm 28.2 19.7 5.1 23 12.0 SSW 39 59 21 32 1013.1 - 0.0
24/03:30pm 28.5 20.1 5.7 23 12.0 SSW 39 50 21 27 1013.0 - 0.0
24/03:18pm 28.1 19.9 6.5 25 11.5 SSW 39 57 21 31 1012.9 - 0.0
24/03:00pm 27.6 19.9 7.1 27 11.0 S 37 48 20 26 1013.5 1012.9 0.0
24/02:30pm 25.4 18.6 6.8 30 9.8 SSW 32 41 17 22 1014.7 - 0.0
24/02:00pm 24.3 16.8 9.5 39 8.1 SW 39 52 21 28 1014.9 - 0.0
24/01:30pm 25.3 17.6 6.9 31 9.7 SSW 37 48 20 26 1014.9 - 0.0
24/01:07pm 26.3 19.4 7.4 30 10.1 SSW 33 52 18 28 1014.9 - 0.0
24/01:00pm 26.9 19.8 8.1 30 10.2 SSW 35 48 19 26 1014.8 - 0.0
24/12:30pm 26.1 18.5 7.4 30 10.0 SSW 37 52 20 28 1014.7 - 0.0
24/12:00pm 25.5 17.9 7.5 31 9.6 SSW 37 50 20 27 1014.5 1013.9 0.0
24/11:30am 25.0 17.9 8.0 34 9.1 SSW 35 46 19 25 1014.5 - 0.0
24/11:00am 24.7 18.1 8.6 36 8.7 SSW 33 46 18 25 1014.4 - 0.0
24/10:37am 24.2 17.3 8.7 37 8.4 S 35 61 19 33 1013.8 - 0.0
24/10:30am 23.6 16.6 8.5 38 8.1 S 35 48 19 26 1013.8 - 0.0
24/10:00am 23.2 16.4 9.4 41 7.5 S 35 48 19 26 1014.1 - 0.0
24/09:30am 22.0 14.9 10.8 49 6.2 S 39 50 21 27 1013.4 - 0.0
24/09:00am 21.4 13.7 11.4 53 5.6 SSW 43 56 23 30 1012.7 1012.1 0.0
24/08:30am 20.9 12.6 11.4 54 5.3 SSW 46 57 25 31 1012.0 - 0.0
24/08:02am 20.8 13.8 11.1 53 5.4 SSW 39 57 21 31 1011.3 - 0.0
24/08:00am 21.0 14.0 11.3 54 5.4 SSW 39 52 21 28 1011.3 - 0.0
24/07:30am 21.9 14.0 10.9 49 6.1 SSW 43 56 23 30 1010.4 - 0.0
24/07:00am 22.5 15.9 9.9 44 6.9 SSW 35 50 19 27 1009.9 - 0.0
24/06:48am 24.4 19.6 11.6 44 7.3 SW 28 43 15 23 1009.8 - 0.0
24/06:30am 24.6 23.5 14.4 53 6.1 W 13 15 7 8 1009.3 - 0.0
24/06:00am 24.9 22.6 14.2 51 6.4 WSW 19 26 10 14 1008.6 1008.0 0.0
24/05:30am 25.4 25.3 13.8 48 6.9 NW 7 11 4 6 1007.7 - 0.0
24/05:00am 26.5 24.9 13.8 45 7.6 N 15 22 8 12 1007.3 - 0.0
24/04:30am 26.1 24.2 14.3 48 7.1 N 17 20 9 11 1007.1 - 0.0
24/04:00am 26.9 25.2 14.7 47 7.4 N 17 20 9 11 1006.8 - 0.0
24/03:30am 27.6 25.0 14.8 45 7.8 NNE 22 30 12 16 1006.8 - 0.0
24/03:00am 28.0 23.9 14.9 44 8.0 NNE 30 37 16 20 1006.7 1006.0 0.0
24/02:30am 28.3 24.5 14.7 43 8.3 NNE 28 35 15 19 1006.6 - 0.0
24/02:00am 28.3 25.6 14.7 43 8.3 NNE 22 28 12 15 1006.8 - 0.0
24/01:30am 28.6 25.3 14.1 41 8.8 NNE 24 28 13 15 1007.1 - 0.0
24/01:00am 29.0 25.5 13.3 38 9.4 NNE 24 30 13 16 1007.5 - 0.0
24/12:30am 28.9 26.4 13.6 39 9.2 NE 19 24 10 13 1007.9 - 0.0
24/12:00am 29.6 25.9 12.8 35 10.0 NE 24 30 13 16 1008.3 1007.7 0.0
 
Date/Time
CDT
Temp
°C
App
Temp
°C
Dew
Point
Rel
Hum
%
Delta-T
°C
Wind Press
QNH
hPa
Press
MSL
hPa
Rain
since 9 am
mm
Dir
 
Spd
km/h
Gust
km/h
Spd
kts
Gust
kts
23/11:30pm 29.3 25.1 12.4 35 10.0 ENE 26 30 14 16 1008.3 - 0.0
23/11:23pm 29.5 26.4 12.2 34 10.2 ENE 20 28 11 15 1008.4 - 0.0
23/11:00pm 29.8 26.4 12.6 34 10.2 W 22 41 12 22 1010.4 - 0.0
23/10:54pm 29.5 25.0 12.6 35 10.0 W 28 41 15 22 1010.7 - 0.0
23/10:30pm 29.1 28.2 13.6 38 9.3 ESE 11 13 6 7 1009.7 - 0.0
23/10:00pm 29.4 25.8 13.0 36 9.8 ENE 24 32 13 17 1008.8 - 0.0
23/09:30pm 29.8 24.3 11.9 33 10.5 NNE 32 39 17 21 1008.6 - 0.0
23/09:00pm 30.2 25.5 12.1 32 10.7 NE 28 37 15 20 1007.6 1007.0 0.0
23/08:30pm 32.0 25.0 8.3 23 13.3 NE 35 44 19 24 1007.7 - 0.0
23/08:00pm 32.0 27.6 8.8 23 13.1 ENE 22 28 12 15 1008.2 - 0.0
23/07:30pm 32.1 26.7 9.6 25 12.9 E 28 35 15 19 1007.3 - 0.0
23/07:00pm 32.4 27.2 10.1 25 12.9 E 28 33 15 18 1006.9 - 0.0
23/06:30pm 32.8 27.5 9.9 24 13.2 E 28 37 15 20 1006.7 - 0.0
23/06:00pm 33.6 28.2 9.4 22 13.9 E 28 35 15 19 1006.7 1006.0 0.0
23/05:30pm 33.1 27.4 9.7 23 13.4 E 30 37 16 20 1006.7 - 0.0
23/05:00pm 32.4 26.4 10.1 25 12.9 ESE 32 41 17 22 1006.9 - 0.0
23/04:30pm 32.8 26.8 10.2 25 13.1 ESE 32 41 17 22 1007.3 - 0.0
23/04:00pm 33.0 26.8 10.0 24 13.3 ESE 33 43 18 23 1007.6 - 0.0
23/03:30pm 31.9 25.9 10.0 26 12.6 ESE 32 39 17 21 1008.0 - 0.0
23/03:00pm 29.8 23.9 11.0 31 10.9 ESE 33 41 18 22 1008.6 1008.0 0.0
23/02:30pm 26.5 21.9 12.2 41 8.3 SE 28 35 15 19 1009.7 - 0.0
23/02:00pm 28.2 21.4 7.8 27 11.1 SSE 33 44 18 24 1010.4 - 0.0
23/01:40pm 29.6 22.9 5.6 22 12.7 S 30 35 16 19 1010.5 - 0.0
23/01:30pm 29.3 21.0 6.0 23 12.4 SE 39 50 21 27 1010.1 - 0.0
23/01:00pm 27.9 20.5 8.4 29 10.7 SSE 37 48 20 26 1009.9 - 0.0
23/12:49pm 25.9 18.3 9.0 34 9.3 SSE 39 50 21 27 1010.6 - 0.0
23/12:30pm 24.7 16.6 9.9 39 8.2 S 43 54 23 29 1011.6 - 0.0
23/12:10pm 25.1 16.3 7.1 31 9.5 SSW 43 61 23 33 1012.6 - 0.0
23/12:00pm 25.9 17.4 6.8 29 10.1 SSW 41 54 22 29 1012.1 1011.4 0.0
23/11:30am 28.1 20.2 4.3 22 12.2 S 35 48 19 26 1011.3 - 0.0
23/11:29am 27.9 19.6 4.2 22 12.1 SSW 37 48 20 26 1011.5 - 0.0
23/11:00am 26.9 19.5 5.0 24 11.3 SE 33 39 18 21 1010.0 - 0.0
23/10:30am 25.6 18.7 6.3 29 10.1 E 32 39 17 21 1010.6 - 0.0
23/10:00am 23.8 18.0 8.1 36 8.4 E 28 35 15 19 1011.3 - 0.0
23/09:30am 22.5 16.4 8.4 40 7.5 ESE 30 35 16 19 1011.5 - 0.0
23/09:00am 22.4 16.8 8.6 41 7.4 ESE 28 35 15 19 1011.0 1010.4 0.0
23/08:30am 21.6 16.2 9.4 45 6.6 ESE 28 33 15 18 1011.2 - 0.0
23/08:00am 20.8 15.5 9.9 49 5.9 SE 28 33 15 18 1011.5 - 0.0
23/07:30am 19.7 14.9 10.3 54 5.1 SE 26 35 14 19 1011.6 - 0.0
23/07:00am 19.2 14.9 10.6 57 4.7 SE 24 32 13 17 1010.9 - 0.0
23/06:30am 18.9 13.9 10.9 59 4.4 SSE 28 39 15 21 1009.7 - 0.0
23/06:00am 19.0 15.1 10.8 59 4.5 SSE 22 30 12 16 1009.7 1009.1 0.0
23/05:30am 19.2 14.1 10.6 57 4.7 SSE 28 41 15 22 1009.4 - 0.0
23/05:00am 19.4 13.8 10.2 55 5.0 S 30 37 16 20 1009.5 - 0.0
23/04:30am 19.4 13.6 9.5 52 5.3 SSE 30 44 16 24 1009.1 - 0.0
23/04:00am 19.7 13.2 8.2 47 6.0 SSE 32 41 17 22 1009.3 - 0.0
23/03:30am 19.9 13.8 8.3 47 6.1 S 30 39 16 21 1009.2 - 0.0
23/03:15am 20.2 13.6 7.9 45 6.4 S 32 50 17 27 1009.4 - 0.0
23/03:00am 20.3 13.6 8.3 46 6.3 S 33 46 18 25 1009.5 1008.9 0.0
23/02:30am 20.5 14.1 8.6 46 6.3 S 32 44 17 24 1009.7 - 0.0
23/02:00am 21.1 15.7 9.4 47 6.3 SSE 28 39 15 21 1010.3 - 0.0
23/01:30am 21.9 15.4 8.3 41 7.2 SSE 32 41 17 22 1010.8 - 0.0
23/01:00am 22.4 16.0 8.6 41 7.4 SE 32 39 17 21 1011.7 - 0.0
23/12:30am 23.3 17.2 8.4 38 8.0 SE 30 41 16 22 1011.7 - 0.0
23/12:22am 23.4 17.1 8.8 39 7.9 SE 32 39 17 21 1011.3 - 0.0
23/12:00am 24.1 16.9 9.3 39 8.1 SSE 37 48 20 26 1010.3 1009.7 0.0
 
Date/Time
CDT
Temp
°C
App
Temp
°C
Dew
Point
Rel
Hum
%
Delta-T
°C
Wind Press
QNH
hPa
Press
MSL
hPa
Rain
since 9 am
mm
Dir
 
Spd
km/h
Gust
km/h
Spd
kts
Gust
kts
22/11:30pm 25.1 18.8 11.0 41 8.0 SSE 35 48 19 26 1010.4 - 0.0
22/11:00pm 26.8 20.6 11.3 38 8.9 SSE 35 43 19 23 1010.3 - 0.0
22/10:30pm 27.8 21.1 12.3 38 9.1 SSE 39 52 21 28 1009.4 - 0.0
22/10:00pm 29.8 23.9 12.4 34 10.3 SSE 35 46 19 25 1008.6 - 0.0
22/09:30pm 32.2 24.3 4.2 17 14.7 S 35 46 19 25 1007.9 - 0.0
22/09:00pm 33.4 26.6 7.6 20 14.4 S 33 43 18 23 1007.3 1006.7 0.0
22/08:30pm 34.4 28.1 8.9 21 14.6 SSW 32 44 17 24 1006.4 - 0.0
22/08:00pm 36.2 30.2 8.5 18 15.8 SW 30 35 16 19 1005.8 - 0.0
22/07:30pm 37.7 31.6 6.8 15 17.3 WSW 28 33 15 18 1005.1 - 0.0
22/07:00pm 38.6 32.2 7.1 14 17.8 WSW 30 39 16 21 1004.6 - 0.0
22/06:31pm 39.3 32.0 7.3 14 18.2 WSW 35 54 19 29 1004.3 - 0.0
22/06:30pm 39.1 31.4 7.2 14 18.1 WSW 37 54 20 29 1004.3 - 0.0
22/06:00pm 39.6 31.7 6.3 13 18.8 WSW 37 50 20 27 1004.0 1003.4 0.0
22/05:38pm 40.1 32.6 6.3 13 19.0 WSW 35 56 19 30 1004.0 - 0.0
22/05:30pm 40.2 33.1 6.6 13 19.0 WSW 33 44 18 24 1003.9 - 0.0
22/05:07pm 40.4 33.2 6.0 12 19.3 WSW 33 52 18 28 1003.9 - 0.0
22/05:00pm 40.7 33.4 7.0 13 19.2 WSW 35 48 19 26 1003.9 - 0.0
22/04:30pm 40.5 33.5 5.9 12 19.4 WSW 32 43 17 23 1003.9 - 0.0
22/04:07pm 41.1 33.6 6.5 12 19.6 WSW 35 54 19 29 1003.8 - 0.0
22/04:00pm 40.9 34.2 8.1 14 19.0 WSW 33 50 18 27 1004.0 - 0.0
22/03:30pm 41.7 33.6 5.1 11 20.4 W 37 54 20 29 1004.0 - 0.0
22/03:26pm 41.1 33.2 4.3 10 20.2 W 35 54 19 29 1004.1 - 0.0
22/03:24pm 41.9 33.7 4.8 10 20.6 W 37 54 20 29 1004.0 - 0.0
22/03:17pm 42.4 34.8 4.1 10 21.1 WNW 33 52 18 28 1004.1 - 0.0
22/03:15pm 42.2 33.2 2.7 9 21.3 WNW 39 52 21 28 1004.1 - 0.0
22/03:00pm 42.5 34.2 2.3 8 21.7 W 35 54 19 29 1004.1 1003.5 0.0
22/02:40pm 41.8 33.2 2.5 9 21.1 W 37 57 20 31 1004.1 - 0.0
22/02:37pm 42.1 34.8 4.5 10 20.8 W 32 39 17 21 1004.0 - 0.0
22/02:34pm 42.0 33.5 3.0 9 21.1 WNW 37 48 20 26 1004.0 - 0.0
22/02:30pm 42.2 32.5 0.4 7 21.8 W 41 54 22 29 1004.0 - 0.0
22/02:29pm 42.2 32.3 1.9 8 21.5 WSW 43 54 23 29 1003.9 - 0.0
22/02:00pm 41.6 33.3 1.9 8 21.1 WNW 35 54 19 29 1004.3 - 0.0
22/01:31pm 41.2 34.4 4.9 11 20.1 NW 30 48 16 26 1004.7 - 0.0
22/01:30pm 41.2 33.9 4.5 10 20.2 NW 32 48 17 26 1004.7 - 0.0
22/01:00pm 40.1 34.0 6.7 13 18.9 NNW 28 41 15 22 1005.0 - 0.0
22/12:45pm 39.1 33.1 7.2 14 18.1 N 28 46 15 25 1005.3 - 0.0
22/12:30pm 39.3 33.1 7.9 15 18.0 N 30 39 16 21 1005.5 - 0.0
22/12:00pm 38.1 32.8 8.6 16 17.1 N 26 32 14 17 1005.8 1005.1 0.0
22/11:30am 37.4 31.1 9.0 18 16.5 N 32 46 17 25 1006.2 - 0.0
22/11:00am 35.3 29.0 9.7 21 14.9 NNE 33 43 18 23 1006.6 - 0.0
22/10:30am 34.6 27.6 10.1 22 14.3 NNE 37 50 20 27 1006.7 - 0.0
22/10:00am 33.5 26.5 11.1 25 13.2 NE 39 50 21 27 1006.9 - 0.0
22/09:30am 32.1 26.0 11.9 29 12.0 NE 35 46 19 25 1007.1 - 0.0
22/09:00am 30.7 26.7 14.2 36 10.1 NE 28 33 15 18 1007.1 1006.4 3.2
22/08:30am 29.2 25.4 14.7 41 8.9 NE 28 35 15 19 1007.1 - 3.2
22/08:00am 26.7 23.0 15.1 49 7.1 NE 28 33 15 18 1006.7 - 3.2
22/07:30am 25.0 21.4 15.3 55 5.9 NE 28 32 15 17 1006.4 - 3.2
22/07:00am 22.9 19.2 16.0 65 4.2 ENE 30 35 16 19 1005.8 - 3.2
22/06:30am 22.4 19.0 17.6 74 3.0 NE 32 41 17 22 1007.1 - 3.2
22/06:12am 22.5 20.8 17.2 72 3.3 NE 22 28 12 15 1007.9 - 3.2
22/06:00am 22.2 20.4 16.1 68 3.7 N 20 28 11 15 1008.7 1008.1 2.8
22/05:30am 22.0 22.7 18.9 82 2.0 SSE 13 15 7 8 1008.0 - 1.0
22/05:27am 22.3 22.8 18.3 78 2.5 SE 13 15 7 8 1007.7 - 0.8
22/05:00am 24.2 21.1 11.6 45 7.2 SE 19 26 10 14 1006.5 - 0.0
22/04:49am 25.9 22.0 7.1 30 10.0 SE 17 22 9 12 1006.3 - 0.0
22/04:39am 25.5 19.1 5.3 27 10.4 SSW 28 35 15 19 1007.4 - 0.0
22/04:30am 25.3 20.9 6.7 30 9.8 ESE 19 20 10 11 1005.4 - 0.0
22/04:00am 25.4 21.0 4.5 26 10.6 E 17 20 9 11 1005.9 - 0.0
22/03:30am 25.4 20.7 5.1 27 10.4 ENE 19 20 10 11 1006.3 - 0.0
22/03:00am 25.4 21.2 3.8 24 10.8 E 15 17 8 9 1006.6 1005.9 0.0
22/02:30am 25.3 21.1 3.6 24 10.8 ESE 15 17 8 9 1007.2 - 0.0
22/02:00am 25.6 21.4 3.9 24 10.9 E 15 17 8 9 1007.3 - 0.0
22/01:30am 26.0 21.9 4.3 24 11.0 SE 15 17 8 9 1007.6 - 0.0
22/01:00am 26.1 22.5 4.8 25 10.9 ESE 13 15 7 8 1008.1 - 0.0
22/12:30am 26.2 22.1 4.6 25 11.0 E 15 17 8 9 1008.4 - 0.0
22/12:00am 26.5 22.6 5.2 25 11.0 ESE 15 15 8 8 1008.6 1008.0 0.0
 
Date/Time
CDT
Temp
°C
App
Temp
°C
Dew
Point
Rel
Hum
%
Delta-T
°C
Wind Press
QNH
hPa
Press
MSL
hPa
Rain
since 9 am
mm
Dir
 
Spd
km/h
Gust
km/h
Spd
kts
Gust
kts
21/11:30pm 27.2 23.2 4.9 24 11.5 ESE 15 15 8 8 1008.9 - 0.0
21/11:00pm 27.9 24.4 5.6 24 11.7 ESE 13 15 7 8 1009.2 - 0.0
21/10:30pm 28.4 24.8 5.2 23 12.1 ESE 13 15 7 8 1009.4 - 0.0
21/10:00pm 29.8 28.0 7.8 25 12.1 ENE 7 7 4 4 1009.2 - 0.0
21/09:30pm 29.8 27.8 7.2 24 12.3 NE 7 7 4 4 1009.1 - 0.0
21/09:00pm 30.2 28.0 6.1 22 12.9 NNE 7 9 4 5 1009.1 1008.5 0.0
21/08:30pm 31.0 28.6 7.0 22 13.1 N 9 11 5 6 1008.9 - 0.0

Other Formats:

Comma delimited format used in spreadsheet applications
http://www.bom.gov.au/fwo/IDS60801/IDS60801.94659.axf

JavaScript Object Notation format (JSON) in row-major order
http://www.bom.gov.au/fwo/IDS60801/IDS60801.94659.json